Time;durP1;ratioP1;P1;durP2;ratioP2;P2;SDS_P1;SDS_P2;PMS_P1;PMS_P2;Temp;Humidity;BMP_temperature;BMP_pressure;BME280_temperature;BME280_humidity;BME280_pressure;Samples;Min_cycle;Max_cycle;Signal;HPM_P1;HPM_P2
2022/10/07 00:02:02;;;;;;;8.88;1.77;;;;;;;;;;4974285;28;20403;-64
2022/10/07 00:04:29;;;;;;;5.97;1.42;;;;;;;;;;4974237;28;20054;-63
2022/10/07 00:06:55;;;;;;;8.23;1.83;;;;;;;;;;4974050;28;20494;-63
2022/10/07 00:09:21;;;;;;;10.25;1.83;;;;;;;;;;4974375;28;20063;-64
2022/10/07 00:11:48;;;;;;;9.05;2.38;;;;;;;;;;4973651;28;20062;-63
2022/10/07 00:14:14;;;;;;;12.18;2.35;;;;;;;;;;4974229;28;20058;-64
2022/10/07 00:16:41;;;;;;;10.15;1.92;;;;;;;;;;4973934;28;20050;-64
2022/10/07 00:19:09;;;;;;;10.38;2.20;;;;;;;;;;4974075;28;20054;-64
2022/10/07 00:21:37;;;;;;;9.70;1.48;;;;;;;;;;4973900;28;20061;-64
2022/10/07 00:24:04;;;;;;;9.43;1.80;;;;;;;;;;4973743;28;20047;-64
2022/10/07 00:26:31;;;;;;;8.98;2.15;;;;;;;;;;4973974;28;20050;-64
2022/10/07 00:28:57;;;;;;;8.00;1.50;;;;;;;;;;4973984;28;20085;-64
2022/10/07 00:31:25;;;;;;;9.45;1.80;;;;;;;;;;4974036;28;20411;-64
2022/10/07 00:33:52;;;;;;;13.50;2.22;;;;;;;;;;4973750;28;20059;-64
2022/10/07 00:36:22;;;;;;;6.20;1.75;;;;;;;;;;4973831;28;20043;-64
2022/10/07 00:38:51;;;;;;;13.10;2.15;;;;;;;;;;4973453;28;20511;-64
2022/10/07 00:41:20;;;;;;;9.07;1.80;;;;;;;;;;4973645;28;20046;-64
2022/10/07 00:43:46;;;;;;;9.48;1.77;;;;;;;;;;4973600;28;20260;-64
2022/10/07 00:46:22;;;;;;;7.72;1.90;;;;;;;;;;4973629;28;20047;-63
2022/10/07 00:48:49;;;;;;;13.35;1.60;;;;;;;;;;4973631;28;20050;-65
2022/10/07 00:51:16;;;;;;;10.65;2.30;;;;;;;;;;4973299;28;20121;-64
2022/10/07 00:53:44;;;;;;;10.80;2.10;;;;;;;;;;4973618;28;20055;-64
2022/10/07 00:56:10;;;;;;;;;;;;;;;;;;4973949;28;20047;-64
2022/10/07 00:58:39;;;;;;;7.83;1.90;;;;;;;;;;4973461;28;19926;-64
2022/10/07 01:01:05;;;;;;;11.90;2.13;;;;;;;;;;4973353;28;20054;-63
2022/10/07 01:03:34;;;;;;;9.95;2.78;;;;;;;;;;4973415;28;20046;-64
2022/10/07 01:06:02;;;;;;;11.73;2.00;;;;;;;;;;4973119;28;20426;-64
2022/10/07 01:08:29;;;;;;;10.20;1.67;;;;;;;;;;4973093;28;20046;-65
2022/10/07 01:10:55;;;;;;;9.68;2.05;;;;;;;;;;4973470;28;20133;-65
2022/10/07 01:13:30;;;;;;;11.40;2.42;;;;;;;;;;4971099;28;20058;-65
2022/10/07 01:16:04;;;;;;;9.82;2.47;;;;;;;;;;4972983;28;20054;-65
2022/10/07 01:18:35;;;;;;;9.45;2.50;;;;;;;;;;4972832;28;20050;-65
2022/10/07 01:21:04;;;;;;;9.32;2.15;;;;;;;;;;4973110;28;20047;-64
2022/10/07 01:24:01;;;;;;;7.63;1.73;;;;;;;;;;4973073;28;20399;-64
2022/10/07 01:26:46;;;;;;;11.80;2.10;;;;;;;;;;4934971;28;20047;-64
2022/10/07 01:29:17;;;;;;;9.57;2.15;;;;;;;;;;4967995;28;20058;-65
2022/10/07 01:31:50;;;;;;;7.65;1.90;;;;;;;;;;4973093;28;20072;-64
2022/10/07 01:34:17;;;;;;;9.25;1.88;;;;;;;;;;4972854;28;20055;-65
2022/10/07 01:36:49;;;;;;;8.52;1.95;;;;;;;;;;4972839;28;20588;-65
2022/10/07 01:39:17;;;;;;;4.35;1.48;;;;;;;;;;4973294;28;20048;-64
2022/10/07 01:41:44;;;;;;;8.55;1.80;;;;;;;;;;4973723;28;20043;-64
2022/10/07 01:44:11;;;;;;;7.53;1.95;;;;;;;;;;4976939;28;20053;-64
2022/10/07 01:46:37;;;;;;;10.00;1.95;;;;;;;;;;4976957;28;20051;-63
2022/10/07 01:49:05;;;;;;;9.38;2.05;;;;;;;;;;4976718;28;20050;-64
2022/10/07 01:51:33;;;;;;;10.35;1.65;;;;;;;;;;4976602;28;20058;-64
2022/10/07 01:54:09;;;;;;;10.70;2.25;;;;;;;;;;4976812;28;20051;-64
2022/10/07 01:56:35;;;;;;;9.40;2.08;;;;;;;;;;4976799;28;20054;-64
2022/10/07 01:59:21;;;;;;;7.53;1.90;;;;;;;;;;4976400;28;20490;-65
2022/10/07 02:01:56;;;;;;;7.85;1.58;;;;;;;;;;4976624;28;20055;-64
2022/10/07 02:04:29;;;;;;;11.80;1.95;;;;;;;;;;4976411;28;20054;-64
2022/10/07 02:07:10;;;;;;;9.40;1.70;;;;;;;;;;4976568;28;20085;-65
2022/10/07 02:09:43;;;;;;;9.95;2.20;;;;;;;;;;4976428;28;20428;-63
2022/10/07 02:12:14;;;;;;;6.15;1.40;;;;;;;;;;4976032;28;20490;-64
2022/10/07 02:15:01;;;;;;;10.70;2.35;;;;;;;;;;4976232;28;20066;-63
2022/10/07 02:17:30;;;;;;;11.57;2.92;;;;;;;;;;4958035;28;20061;-64
2022/10/07 02:19:57;;;;;;;7.10;1.70;;;;;;;;;;4976381;28;20057;-64
2022/10/07 02:22:25;;;;;;;10.37;2.13;;;;;;;;;;4976287;28;20059;-64
2022/10/07 02:24:54;;;;;;;9.27;1.55;;;;;;;;;;4975984;28;20053;-64
2022/10/07 02:27:23;;;;;;;5.85;1.65;;;;;;;;;;4976191;28;20410;-64
2022/10/07 02:29:51;;;;;;;8.00;1.63;;;;;;;;;;4975903;28;20058;-64
2022/10/07 02:32:19;;;;;;;7.57;1.80;;;;;;;;;;4975797;28;20059;-64
2022/10/07 02:34:47;;;;;;;11.02;1.80;;;;;;;;;;4975993;28;20059;-64
2022/10/07 02:37:18;;;;;;;10.13;1.85;;;;;;;;;;4975832;28;20050;-64
2022/10/07 02:39:45;;;;;;;11.40;1.80;;;;;;;;;;4975886;28;20055;-64
2022/10/07 02:42:18;;;;;;;12.98;2.17;;;;;;;;;;4975951;28;20418;-64
2022/10/07 02:44:53;;;;;;;6.82;1.67;;;;;;;;;;4975667;28;20046;-63
2022/10/07 02:47:28;;;;;;;5.07;1.65;;;;;;;;;;4975627;28;20057;-64
2022/10/07 02:50:00;;;;;;;9.48;1.88;;;;;;;;;;4975431;28;20499;-64
2022/10/07 02:52:30;;;;;;;6.88;1.85;;;;;;;;;;4975776;28;20051;-64
2022/10/07 02:55:02;;;;;;;8.40;1.55;;;;;;;;;;4974358;28;20049;-64
2022/10/07 02:57:32;;;;;;;12.43;1.95;;;;;;;;;;4975592;28;20047;-64
2022/10/07 02:59:59;;;;;;;11.43;1.88;;;;;;;;;;4975263;28;20502;-64
2022/10/07 03:02:26;;;;;;;;;;;;;;;;;;4975985;28;20118;-64
2022/10/07 03:04:56;;;;;;;8.13;2.15;;;;;;;;;;4975555;28;19944;-64
2022/10/07 03:07:23;;;;;;;10.35;1.92;;;;;;;;;;4975465;28;20046;-64
2022/10/07 03:09:50;;;;;;;7.75;1.90;;;;;;;;;;4975144;28;20503;-64
2022/10/07 03:12:16;;;;;;;8.13;1.50;;;;;;;;;;4975209;28;20053;-64
2022/10/07 03:14:43;;;;;;;13.50;2.35;;;;;;;;;;4975118;28;20067;-64
2022/10/07 03:17:10;;;;;;;11.43;2.15;;;;;;;;;;4975271;28;20422;-64
2022/10/07 03:19:36;;;;;;;8.60;2.00;;;;;;;;;;4974951;28;20057;-64
2022/10/07 03:22:03;;;;;;;7.57;2.13;;;;;;;;;;4975228;28;20055;-64
2022/10/07 03:24:30;;;;;;;10.13;2.00;;;;;;;;;;4975107;28;20415;-64
2022/10/07 03:26:56;;;;;;;8.65;1.98;;;;;;;;;;4975147;28;20047;-64
2022/10/07 03:29:24;;;;;;;9.35;1.70;;;;;;;;;;4975126;28;20055;-64
2022/10/07 03:31:53;;;;;;;10.48;1.42;;;;;;;;;;4975296;28;20051;-65
2022/10/07 03:34:20;;;;;;;8.82;2.22;;;;;;;;;;4974930;28;20046;-64
2022/10/07 03:36:46;;;;;;;8.02;1.80;;;;;;;;;;4974858;28;20109;-64
2022/10/07 03:39:12;;;;;;;9.88;1.40;;;;;;;;;;4974727;28;20050;-65
2022/10/07 03:41:40;;;;;;;11.18;1.77;;;;;;;;;;4974752;28;20051;-63
2022/10/07 03:44:06;;;;;;;9.75;1.67;;;;;;;;;;4974715;28;20058;-63
2022/10/07 03:46:32;;;;;;;6.88;1.42;;;;;;;;;;4974519;28;20054;-65
2022/10/07 03:48:59;;;;;;;7.22;1.83;;;;;;;;;;4974757;28;20055;-64
2022/10/07 03:51:25;;;;;;;4.03;1.63;;;;;;;;;;4974597;28;20062;-65
2022/10/07 03:53:56;;;;;;;9.77;1.52;;;;;;;;;;4974704;28;20051;-63
2022/10/07 03:56:22;;;;;;;5.63;1.48;;;;;;;;;;4974539;28;20059;-63
2022/10/07 03:58:49;;;;;;;8.82;1.50;;;;;;;;;;4974177;28;20058;-64
2022/10/07 04:01:16;;;;;;;6.90;2.20;;;;;;;;;;4974701;28;20054;-64
2022/10/07 04:03:42;;;;;;;11.77;2.15;;;;;;;;;;4974369;28;20059;-64
2022/10/07 04:06:09;;;;;;;13.15;2.30;;;;;;;;;;4974007;28;20047;-64
2022/10/07 04:08:35;;;;;;;10.40;1.98;;;;;;;;;;4974143;28;20053;-64
2022/10/07 04:11:02;;;;;;;7.57;1.70;;;;;;;;;;4974359;28;20053;-64
2022/10/07 04:13:29;;;;;;;6.43;1.45;;;;;;;;;;4973871;28;20058;-64
2022/10/07 04:15:55;;;;;;;12.80;2.03;;;;;;;;;;4973996;28;20510;-64
2022/10/07 04:18:22;;;;;;;6.35;1.50;;;;;;;;;;4974144;28;20097;-64
2022/10/07 04:20:48;;;;;;;7.47;1.77;;;;;;;;;;4974183;28;20042;-64
2022/10/07 04:23:15;;;;;;;7.18;1.55;;;;;;;;;;4973881;28;20051;-64
2022/10/07 04:25:42;;;;;;;9.50;1.95;;;;;;;;;;4973925;28;20058;-64
2022/10/07 04:28:17;;;;;;;6.50;1.75;;;;;;;;;;4973998;28;20399;-65
2022/10/07 04:30:43;;;;;;;5.93;1.55;;;;;;;;;;4973875;28;20047;-64
2022/10/07 04:33:11;;;;;;;7.40;2.25;;;;;;;;;;4973964;28;20054;-64
2022/10/07 04:35:38;;;;;;;10.18;2.25;;;;;;;;;;4973954;28;20074;-64
2022/10/07 04:38:07;;;;;;;9.25;2.78;;;;;;;;;;4973520;28;20039;-64
2022/10/07 04:40:36;;;;;;;12.43;2.33;;;;;;;;;;4973562;28;20058;-64
2022/10/07 04:43:18;;;;;;;5.15;1.90;;;;;;;;;;4973435;28;20505;-64
2022/10/07 04:46:02;;;;;;;10.95;2.25;;;;;;;;;;4973970;28;20133;-64
2022/10/07 04:48:29;;;;;;;8.68;2.22;;;;;;;;;;4973696;28;20057;-64
2022/10/07 04:50:59;;;;;;;10.23;2.08;;;;;;;;;;4973317;28;20571;-64
2022/10/07 04:53:25;;;;;;;8.95;1.70;;;;;;;;;;4973695;28;20069;-64
2022/10/07 04:55:52;;;;;;;7.75;1.85;;;;;;;;;;4973463;28;20050;-64
2022/10/07 04:58:18;;;;;;;8.50;1.98;;;;;;;;;;4973247;28;20066;-65
2022/10/07 05:00:49;;;;;;;7.55;1.73;;;;;;;;;;4973430;28;20050;-64
2022/10/07 05:03:16;;;;;;;9.60;2.22;;;;;;;;;;4973378;28;20109;-64
2022/10/07 05:05:44;;;;;;;7.03;1.83;;;;;;;;;;4973590;28;20043;-64
2022/10/07 05:08:11;;;;;;;6.53;1.80;;;;;;;;;;4973228;28;20051;-65
2022/10/07 05:10:38;;;;;;;7.32;1.73;;;;;;;;;;4973342;28;20050;-64
2022/10/07 05:13:11;;;;;;;9.10;1.50;;;;;;;;;;4972885;28;20129;-64
2022/10/07 05:15:46;;;;;;;7.07;1.83;;;;;;;;;;4973082;28;20280;-64
2022/10/07 05:18:12;;;;;;;8.10;1.90;;;;;;;;;;4972690;28;20050;-64
2022/10/07 05:20:41;;;;;;;7.40;1.65;;;;;;;;;;4972972;28;20047;-64
2022/10/07 05:23:07;;;;;;;7.38;1.60;;;;;;;;;;4973231;28;20407;-64
2022/10/07 05:25:34;;;;;;;7.32;1.60;;;;;;;;;;4972929;28;20050;-64
2022/10/07 05:28:00;;;;;;;7.43;1.38;;;;;;;;;;4972960;28;20054;-64
2022/10/07 05:30:26;;;;;;;5.35;1.33;;;;;;;;;;4973143;28;20055;-64
2022/10/07 05:32:53;;;;;;;8.15;1.67;;;;;;;;;;4973056;28;20050;-64
2022/10/07 05:35:20;;;;;;;6.05;1.48;;;;;;;;;;4973131;28;20055;-64
2022/10/07 05:37:51;;;;;;;9.13;1.63;;;;;;;;;;4972859;28;20074;-63
2022/10/07 05:40:18;;;;;;;8.50;1.70;;;;;;;;;;4972877;28;20138;-63
2022/10/07 05:42:44;;;;;;;9.55;1.60;;;;;;;;;;4972704;28;20051;-63
2022/10/07 05:45:10;;;;;;;8.15;1.77;;;;;;;;;;4972765;28;20047;-63
2022/10/07 05:47:37;;;;;;;9.85;1.58;;;;;;;;;;4972646;28;20479;-64
2022/10/07 05:50:04;;;;;;;5.60;1.17;;;;;;;;;;4972814;28;20059;-64
2022/10/07 05:52:31;;;;;;;7.78;1.75;;;;;;;;;;4972859;28;20065;-64
2022/10/07 05:54:57;;;;;;;7.03;1.63;;;;;;;;;;4972576;28;20058;-64
2022/10/07 05:57:24;;;;;;;8.80;1.73;;;;;;;;;;4972655;28;20051;-64
2022/10/07 05:59:50;;;;;;;7.82;1.05;;;;;;;;;;4972415;28;20038;-65
2022/10/07 06:02:17;;;;;;;4.95;1.15;;;;;;;;;;4972890;28;20062;-64
2022/10/07 06:04:47;;;;;;;5.35;1.38;;;;;;;;;;4972724;28;20134;-64
2022/10/07 06:07:14;;;;;;;6.47;1.80;;;;;;;;;;4972938;28;20043;-64
2022/10/07 06:15:16;;;;;;;6.22;1.25;;;;;;;;;;4972612;28;20047;-63
2022/10/07 06:17:43;;;;;;;8.13;1.75;;;;;;;;;;4972807;28;20415;-64
2022/10/07 06:20:10;;;;;;;;;;;;;;;;;;4972825;28;20051;-65
2022/10/07 06:22:36;;;;;;;7.57;1.75;;;;;;;;;;4972354;28;19922;-65
2022/10/07 06:25:03;;;;;;;11.65;1.40;;;;;;;;;;4972775;28;20053;-65
2022/10/07 06:27:29;;;;;;;6.60;1.50;;;;;;;;;;4972879;28;20055;-64
2022/10/07 06:29:55;;;;;;;10.82;1.83;;;;;;;;;;4973788;28;20078;-64
2022/10/07 06:32:22;;;;;;;8.02;1.30;;;;;;;;;;4975464;28;20060;-64
2022/10/07 06:34:48;;;;;;;6.43;1.67;;;;;;;;;;4975898;28;20058;-64
2022/10/07 06:37:14;;;;;;;5.32;1.17;;;;;;;;;;4975490;28;20058;-64
2022/10/07 06:39:41;;;;;;;7.32;1.40;;;;;;;;;;4975239;28;20043;-63
2022/10/07 06:42:07;;;;;;;8.80;1.40;;;;;;;;;;4975504;28;20047;-64
2022/10/07 06:44:34;;;;;;;7.80;1.33;;;;;;;;;;4975140;28;20046;-64
2022/10/07 06:47:01;;;;;;;11.38;2.10;;;;;;;;;;4975618;28;20053;-64
2022/10/07 06:49:27;;;;;;;8.38;1.58;;;;;;;;;;4975677;28;20062;-64
2022/10/07 06:51:54;;;;;;;7.65;1.50;;;;;;;;;;4975981;28;20404;-65
2022/10/07 06:54:20;;;;;;;6.20;1.45;;;;;;;;;;4975915;28;20055;-64
2022/10/07 06:56:46;;;;;;;5.60;1.45;;;;;;;;;;4975392;28;20522;-64
2022/10/07 06:59:13;;;;;;;10.80;1.65;;;;;;;;;;4975676;28;20054;-64
2022/10/07 07:01:39;;;;;;;7.60;1.50;;;;;;;;;;4974734;28;20050;-64
2022/10/07 07:04:06;;;;;;;7.32;1.20;;;;;;;;;;4975284;28;20050;-64
2022/10/07 07:06:36;;;;;;;11.10;1.40;;;;;;;;;;4975536;28;20053;-64
2022/10/07 07:09:04;;;;;;;9.77;1.92;;;;;;;;;;4975118;28;20047;-65
2022/10/07 07:11:37;;;;;;;9.52;1.60;;;;;;;;;;4975016;28;20065;-65
2022/10/07 07:14:04;;;;;;;9.65;1.80;;;;;;;;;;4974875;28;20160;-65
2022/10/07 07:16:30;;;;;;;8.13;1.73;;;;;;;;;;4975113;28;20054;-65
2022/10/07 07:18:58;;;;;;;9.57;1.42;;;;;;;;;;4975214;28;20078;-63
2022/10/07 07:21:27;;;;;;;5.32;1.10;;;;;;;;;;4974981;28;20486;-65
2022/10/07 07:23:54;;;;;;;6.50;1.20;;;;;;;;;;4974932;28;20047;-64
2022/10/07 07:26:20;;;;;;;7.85;1.30;;;;;;;;;;4974689;28;20051;-64
2022/10/07 07:28:51;;;;;;;6.72;1.70;;;;;;;;;;4973821;28;20134;-62
2022/10/07 07:31:17;;;;;;;7.95;1.67;;;;;;;;;;4974810;28;20051;-63
2022/10/07 07:33:43;;;;;;;8.30;1.55;;;;;;;;;;4974875;28;20046;-65
2022/10/07 07:36:16;;;;;;;6.18;1.25;;;;;;;;;;4974705;28;20042;-63
2022/10/07 07:38:50;;;;;;;5.70;1.40;;;;;;;;;;4974595;28;20051;-64
2022/10/07 07:41:17;;;;;;;5.07;1.40;;;;;;;;;;4973836;28;20050;-64
2022/10/07 07:43:47;;;;;;;9.00;1.35;;;;;;;;;;4974681;28;20053;-64
2022/10/07 07:46:14;;;;;;;6.93;1.67;;;;;;;;;;4974990;28;20042;-64
2022/10/07 07:48:40;;;;;;;7.57;2.10;;;;;;;;;;4974697;28;20113;-63
2022/10/07 07:51:06;;;;;;;6.28;1.42;;;;;;;;;;4974747;28;20082;-64
2022/10/07 07:53:35;;;;;;;8.10;1.90;;;;;;;;;;4974421;28;20055;-63
2022/10/07 07:56:02;;;;;;;5.15;1.10;;;;;;;;;;4973890;28;20423;-63
2022/10/07 07:58:28;;;;;;;5.10;1.63;;;;;;;;;;4973923;28;20388;-63
2022/10/07 08:01:09;;;;;;;6.37;1.10;;;;;;;;;;4973949;28;20406;-64
2022/10/07 08:03:39;;;;;;;7.30;1.48;;;;;;;;;;4973896;28;20137;-64
2022/10/07 08:06:06;;;;;;;9.63;1.50;;;;;;;;;;4973939;28;20410;-64
2022/10/07 08:08:33;;;;;;;8.90;1.50;;;;;;;;;;4973206;28;20495;-63
2022/10/07 08:11:09;;;;;;;9.77;1.20;;;;;;;;;;4973655;28;20062;-64
2022/10/07 08:13:40;;;;;;;6.63;1.30;;;;;;;;;;4960128;28;20054;-64
2022/10/07 08:16:07;;;;;;;7.70;1.45;;;;;;;;;;4974226;28;20054;-64
2022/10/07 08:18:34;;;;;;;6.78;1.48;;;;;;;;;;4974048;28;20066;-64
2022/10/07 08:21:02;;;;;;;6.43;0.93;;;;;;;;;;4972414;28;20051;-63
2022/10/07 08:23:29;;;;;;;4.78;1.20;;;;;;;;;;4973741;28;20047;-63
2022/10/07 08:25:56;;;;;;;9.32;1.65;;;;;;;;;;4973771;28;20050;-64
2022/10/07 08:28:22;;;;;;;5.30;1.10;;;;;;;;;;4973332;28;20043;-63
2022/10/07 08:30:50;;;;;;;8.98;1.17;;;;;;;;;;4973490;28;20405;-63
2022/10/07 08:33:17;;;;;;;7.75;1.35;;;;;;;;;;4972548;28;20047;-64
2022/10/07 08:35:48;;;;;;;4.80;0.85;;;;;;;;;;4966091;28;20061;-64
2022/10/07 08:38:14;;;;;;;9.85;1.33;;;;;;;;;;4972512;28;20066;-64
2022/10/07 08:40:51;;;;;;;3.25;0.82;;;;;;;;;;4973138;28;20051;-64
2022/10/07 08:43:18;;;;;;;7.97;1.43;;;;;;;;;;4971446;28;20050;-64
2022/10/07 08:45:46;;;;;;;6.60;1.33;;;;;;;;;;4973002;28;20281;-64
2022/10/07 08:48:18;;;;;;;4.78;1.00;;;;;;;;;;4972923;28;20055;-64
2022/10/07 08:50:47;;;;;;;6.13;1.10;;;;;;;;;;4972995;28;20058;-64
2022/10/07 08:53:15;;;;;;;4.38;0.70;;;;;;;;;;4972566;28;20058;-64
2022/10/07 08:55:43;;;;;;;6.80;1.42;;;;;;;;;;4972729;28;20491;-63
2022/10/07 08:58:42;;;;;;;4.82;0.80;;;;;;;;;;4972931;28;20058;-64
2022/10/07 09:01:16;;;;;;;4.35;0.70;;;;;;;;;;4950653;28;20090;-64
2022/10/07 09:04:06;;;;;;;5.07;0.85;;;;;;;;;;4972611;28;20499;-64
2022/10/07 09:06:41;;;;;;;3.63;0.80;;;;;;;;;;4953949;28;20050;-64
2022/10/07 09:09:16;;;;;;;6.30;1.15;;;;;;;;;;4972883;28;20061;-64
2022/10/07 09:11:45;;;;;;;6.45;1.40;;;;;;;;;;4972063;28;20414;-64
2022/10/07 09:14:33;;;;;;;5.78;0.95;;;;;;;;;;4972294;28;20053;-64
2022/10/07 09:17:02;;;;;;;5.32;1.00;;;;;;;;;;4972267;28;20514;-64
2022/10/07 09:19:33;;;;;;;5.80;1.00;;;;;;;;;;4972328;28;20051;-64
2022/10/07 09:22:05;;;;;;;2.45;0.70;;;;;;;;;;4973634;28;20058;-64
2022/10/07 09:24:33;;;;;;;5.10;0.70;;;;;;;;;;4972128;28;20050;-64
2022/10/07 09:27:01;;;;;;;5.53;1.10;;;;;;;;;;4972145;28;20410;-64
2022/10/07 09:29:29;;;;;;;3.90;0.88;;;;;;;;;;4971999;28;20047;-64
2022/10/07 09:31:55;;;;;;;;;;;;;;;;;;4972393;28;20061;-64
2022/10/07 09:34:23;;;;;;;4.57;1.20;;;;;;;;;;4972168;28;19922;-64
2022/10/07 09:37:09;;;;;;;4.97;1.30;;;;;;;;;;4972073;28;20062;-64
2022/10/07 09:39:36;;;;;;;4.25;1.00;;;;;;;;;;4971671;28;20050;-64
2022/10/07 09:42:03;;;;;;;3.22;0.80;;;;;;;;;;4972083;28;20380;-64
2022/10/07 09:44:30;;;;;;;;;;;;;;;;;;4969944;28;20479;-64
2022/10/07 09:46:58;;;;;;;6.00;0.88;;;;;;;;;;4972073;28;19933;-64
2022/10/07 09:49:27;;;;;;;4.00;0.60;;;;;;;;;;4971779;28;20066;-64
2022/10/07 09:51:57;;;;;;;3.40;0.82;;;;;;;;;;4971810;28;20517;-64
2022/10/07 09:54:23;;;;;;;2.47;0.40;;;;;;;;;;4971810;28;20042;-65
2022/10/07 09:56:53;;;;;;;3.28;0.70;;;;;;;;;;4971750;28;20054;-65
2022/10/07 09:59:21;;;;;;;4.05;0.70;;;;;;;;;;4971648;28;20065;-64
2022/10/07 10:01:51;;;;;;;5.43;1.00;;;;;;;;;;4970773;28;20051;-64
2022/10/07 10:04:20;;;;;;;4.35;0.80;;;;;;;;;;4975617;28;20054;-64
2022/10/07 10:06:47;;;;;;;2.05;0.50;;;;;;;;;;4976170;28;20050;-64
2022/10/07 10:09:17;;;;;;;3.35;0.80;;;;;;;;;;4975880;28;20058;-65
2022/10/07 10:11:57;;;;;;;3.65;0.70;;;;;;;;;;4975642;28;20058;-65
2022/10/07 10:14:45;;;;;;;2.63;0.65;;;;;;;;;;4975919;28;20482;-60
2022/10/07 10:17:27;;;;;;;5.63;0.85;;;;;;;;;;4975174;28;20058;-61
2022/10/07 10:19:53;;;;;;;1.67;0.50;;;;;;;;;;4975465;28;20415;-60
2022/10/07 10:22:25;;;;;;;2.28;0.80;;;;;;;;;;4975908;28;20090;-60
2022/10/07 10:27:58;;;;;;;2.92;1.00;;;;;;;;;;4975670;28;20085;-61
2022/10/07 10:30:24;;;;;;;4.20;0.70;;;;;;;;;;4938863;28;20064;-61
2022/10/07 10:33:14;;;;;;;3.53;0.70;;;;;;;;;;4974588;28;20050;-60
2022/10/07 10:35:54;;;;;;;2.90;0.60;;;;;;;;;;4975770;28;20050;-60
2022/10/07 10:38:33;;;;;;;3.50;0.85;;;;;;;;;;4975347;28;20057;-61
2022/10/07 10:41:16;;;;;;;3.03;0.45;;;;;;;;;;4975193;28;20057;-60
2022/10/07 10:43:53;;;;;;;1.98;0.40;;;;;;;;;;4973659;28;20055;-60
2022/10/07 10:46:26;;;;;;;3.08;0.60;;;;;;;;;;4975172;28;20777;-61
2022/10/07 10:48:58;;;;;;;2.65;0.50;;;;;;;;;;4975022;28;20439;-60
2022/10/07 10:51:30;;;;;;;2.28;0.50;;;;;;;;;;4975180;28;20054;-60
2022/10/07 10:53:57;;;;;;;1.85;0.60;;;;;;;;;;4975494;28;20081;-61
2022/10/07 10:56:35;;;;;;;1.93;0.30;;;;;;;;;;4975141;28;20047;-60
2022/10/07 10:59:08;;;;;;;4.57;0.80;;;;;;;;;;4975002;28;20059;-60
2022/10/07 11:01:35;;;;;;;1.98;0.57;;;;;;;;;;4974758;28;20129;-60
2022/10/07 11:04:05;;;;;;;5.13;0.63;;;;;;;;;;4975239;28;20051;-60
2022/10/07 11:06:33;;;;;;;5.00;0.80;;;;;;;;;;4975012;28;20054;-60
2022/10/07 11:09:00;;;;;;;3.03;0.70;;;;;;;;;;4975194;28;20057;-60
2022/10/07 11:11:27;;;;;;;2.35;0.63;;;;;;;;;;4974823;28;20065;-60
2022/10/07 11:14:13;;;;;;;3.00;0.82;;;;;;;;;;4973834;28;20482;-60
2022/10/07 11:16:45;;;;;;;2.15;0.60;;;;;;;;;;4974587;28;20058;-60
2022/10/07 11:19:21;;;;;;;4.72;1.17;;;;;;;;;;4974534;28;20495;-60
2022/10/07 11:21:49;;;;;;;4.53;1.50;;;;;;;;;;4974611;28;20483;-61
2022/10/07 11:24:15;;;;;;;3.92;0.60;;;;;;;;;;4974439;28;20054;-59
2022/10/07 11:27:02;;;;;;;3.28;0.63;;;;;;;;;;4974516;28;20069;-61
2022/10/07 11:29:28;;;;;;;;;;;;;;;;;;4974871;28;20505;-61
2022/10/07 11:31:57;;;;;;;2.08;0.65;;;;;;;;;;4974808;28;19926;-61
2022/10/07 11:34:26;;;;;;;2.22;0.47;;;;;;;;;;4974513;28;20056;-61
2022/10/07 11:36:52;;;;;;;2.95;0.52;;;;;;;;;;4974576;28;20050;-61
2022/10/07 11:39:20;;;;;;;4.07;0.60;;;;;;;;;;4974207;28;20051;-62
2022/10/07 11:42:06;;;;;;;1.20;0.50;;;;;;;;;;4974381;28;20063;-61
2022/10/07 11:44:36;;;;;;;3.70;0.80;;;;;;;;;;4972185;28;20065;-61
2022/10/07 11:47:04;;;;;;;1.83;0.68;;;;;;;;;;4974493;28;20053;-61
2022/10/07 11:49:37;;;;;;;3.78;0.60;;;;;;;;;;4974179;28;20130;-60
2022/10/07 11:52:05;;;;;;;2.03;0.40;;;;;;;;;;4973476;28;20051;-61
2022/10/07 11:54:44;;;;;;;2.50;0.30;;;;;;;;;;4973585;28;20055;-61
2022/10/07 11:57:21;;;;;;;3.67;0.50;;;;;;;;;;4973602;28;20483;-62
2022/10/07 11:59:48;;;;;;;4.10;0.40;;;;;;;;;;4973666;28;20050;-61
2022/10/07 12:02:27;;;;;;;2.55;0.40;;;;;;;;;;4973757;28;20057;-60
2022/10/07 12:05:02;;;;;;;2.25;0.55;;;;;;;;;;4974135;28;20050;-61
2022/10/07 12:07:35;;;;;;;1.73;0.50;;;;;;;;;;4973835;28;20483;-61
2022/10/07 12:10:02;;;;;;;2.10;0.70;;;;;;;;;;4973682;28;20505;-61
2022/10/07 12:12:41;;;;;;;3.03;0.60;;;;;;;;;;4973202;28;20078;-61
2022/10/07 12:15:26;;;;;;;2.25;0.70;;;;;;;;;;4973482;28;20046;-60
2022/10/07 12:18:16;;;;;;;1.40;0.35;;;;;;;;;;4973859;28;20047;-60
2022/10/07 12:20:43;;;;;;;2.63;0.47;;;;;;;;;;4954687;28;20045;-61
2022/10/07 12:23:19;;;;;;;3.72;0.40;;;;;;;;;;4973749;28;20154;-61
2022/10/07 12:25:48;;;;;;;2.40;0.32;;;;;;;;;;4972742;28;20061;-60
2022/10/07 12:28:22;;;;;;;5.43;0.60;;;;;;;;;;4973275;28;20046;-61
2022/10/07 12:30:53;;;;;;;7.22;1.02;;;;;;;;;;4973701;28;20051;-61
2022/10/07 12:33:43;;;;;;;2.25;0.60;;;;;;;;;;4973648;28;20054;-60
2022/10/07 12:36:30;;;;;;;2.95;0.60;;;;;;;;;;4954748;28;20101;-60
2022/10/07 12:38:57;;;;;;;;;;;;;;;;;;4972981;28;20415;-60
2022/10/07 12:41:27;;;;;;;2.92;0.50;;;;;;;;;;4973040;28;20289;-61
2022/10/07 12:44:12;;;;;;;2.83;0.45;;;;;;;;;;4971181;28;20042;-61
2022/10/07 12:46:49;;;;;;;1.92;0.45;;;;;;;;;;4973344;28;20054;-61
2022/10/07 12:49:21;;;;;;;1.10;0.47;;;;;;;;;;4973203;28;20197;-61
2022/10/07 12:51:48;;;;;;;2.72;0.47;;;;;;;;;;4973248;28;20054;-61
2022/10/07 12:54:28;;;;;;;1.50;0.52;;;;;;;;;;4972791;28;20503;-61
2022/10/07 12:56:55;;;;;;;2.92;0.40;;;;;;;;;;4972403;28;20057;-61
2022/10/07 13:02:16;;;;;;;1.65;0.52;;;;;;;;;;4972455;28;20047;-62
2022/10/07 13:04:45;;;;;;;2.20;0.50;;;;;;;;;;4972540;28;20498;-61
2022/10/07 13:07:24;;;;;;;3.10;0.35;;;;;;;;;;4972905;28;20070;-61
2022/10/07 13:10:00;;;;;;;2.28;0.50;;;;;;;;;;4972441;28;20051;-62
2022/10/07 13:12:42;;;;;;;2.13;0.45;;;;;;;;;;4972792;28;20055;-61
2022/10/07 13:15:27;;;;;;;4.53;0.70;;;;;;;;;;4972464;28;20495;-62
2022/10/07 13:18:07;;;;;;;2.17;0.60;;;;;;;;;;4972590;28;20487;-61
2022/10/07 13:20:39;;;;;;;3.47;0.77;;;;;;;;;;4972754;28;20473;-61
2022/10/07 13:23:16;;;;;;;2.28;0.60;;;;;;;;;;4972403;28;20057;-61
2022/10/07 13:25:44;;;;;;;2.33;0.60;;;;;;;;;;4972091;28;20537;-62
2022/10/07 13:28:15;;;;;;;3.10;0.70;;;;;;;;;;4971994;28;20063;-61
2022/10/07 13:30:43;;;;;;;1.73;0.40;;;;;;;;;;4972056;28;20086;-61
2022/10/07 13:33:15;;;;;;;3.67;0.73;;;;;;;;;;4972182;28;20070;-62
2022/10/07 13:35:42;;;;;;;1.42;0.50;;;;;;;;;;4972409;28;20055;-62
2022/10/07 13:38:19;;;;;;;2.40;0.40;;;;;;;;;;4975493;28;20406;-62
2022/10/07 13:40:52;;;;;;;1.88;0.45;;;;;;;;;;4978547;28;20054;-61
2022/10/07 13:43:18;;;;;;;2.58;0.50;;;;;;;;;;4976553;28;20054;-61
2022/10/07 13:45:45;;;;;;;3.90;0.52;;;;;;;;;;4978328;28;20045;-61
2022/10/07 13:48:15;;;;;;;1.88;0.40;;;;;;;;;;4978288;28;20051;-62
2022/10/07 13:50:42;;;;;;;3.05;0.73;;;;;;;;;;4978707;28;20061;-61
2022/10/07 13:53:18;;;;;;;1.77;0.47;;;;;;;;;;4978876;28;20050;-61
2022/10/07 13:55:46;;;;;;;1.23;0.40;;;;;;;;;;4978479;28;20059;-62
2022/10/07 13:58:12;;;;;;;2.47;0.57;;;;;;;;;;4978639;28;20039;-62
2022/10/07 14:00:45;;;;;;;1.40;0.30;;;;;;;;;;4978396;28;20047;-61
2022/10/07 14:03:15;;;;;;;2.42;0.68;;;;;;;;;;4978497;28;20475;-61
2022/10/07 14:05:50;;;;;;;3.25;0.47;;;;;;;;;;4977910;28;20066;-61
2022/10/07 14:08:20;;;;;;;1.25;0.60;;;;;;;;;;4978461;28;20428;-63
2022/10/07 14:10:52;;;;;;;2.53;0.73;;;;;;;;;;4977994;28;20487;-63
2022/10/07 14:13:18;;;;;;;1.80;0.50;;;;;;;;;;4966406;28;20050;-64
2022/10/07 14:15:46;;;;;;;2.67;0.55;;;;;;;;;;4977959;28;20043;-63
2022/10/07 14:18:15;;;;;;;1.52;0.30;;;;;;;;;;4978809;28;20050;-63
2022/10/07 14:20:49;;;;;;;2.03;0.40;;;;;;;;;;4978797;28;20055;-63
2022/10/07 14:23:18;;;;;;;2.35;0.50;;;;;;;;;;4977579;28;20051;-63
2022/10/07 14:26:15;;;;;;;1.77;0.40;;;;;;;;;;4978228;28;20129;-63
2022/10/07 14:28:41;;;;;;;1.85;0.52;;;;;;;;;;4970431;28;20051;-63
2022/10/07 14:37:02;;;;;;;3.05;0.35;;;;;;;;;;4978584;28;20513;-62
2022/10/07 14:39:33;;;;;;;2.03;0.43;;;;;;;;;;4977989;28;20057;-62
2022/10/07 14:42:00;;;;;;;4.35;0.75;;;;;;;;;;4978560;28;20043;-63
2022/10/07 14:44:27;;;;;;;3.30;0.47;;;;;;;;;;4977148;28;20050;-62
2022/10/07 14:47:09;;;;;;;2.20;0.57;;;;;;;;;;4977145;28;20061;-63
2022/10/07 14:49:36;;;;;;;2.78;0.50;;;;;;;;;;4977045;28;20055;-62
2022/10/07 14:52:04;;;;;;;4.30;0.77;;;;;;;;;;4975267;28;20074;-62
2022/10/07 14:54:31;;;;;;;3.88;0.80;;;;;;;;;;4975604;28;20051;-62
2022/10/07 14:56:58;;;;;;;5.47;0.90;;;;;;;;;;4975561;28;20047;-62
2022/10/07 14:59:24;;;;;;;3.63;0.80;;;;;;;;;;4975548;28;20070;-63
2022/10/07 15:01:50;;;;;;;4.68;0.80;;;;;;;;;;4975401;28;20050;-62
2022/10/07 15:04:17;;;;;;;4.47;1.00;;;;;;;;;;4975603;28;20051;-63
2022/10/07 15:06:44;;;;;;;3.10;0.93;;;;;;;;;;4975520;28;20122;-62
2022/10/07 15:09:17;;;;;;;4.50;1.55;;;;;;;;;;4975675;28;20042;-62
2022/10/07 15:11:43;;;;;;;4.70;2.05;;;;;;;;;;4975033;28;20058;-63
2022/10/07 15:14:10;;;;;;;6.10;4.60;;;;;;;;;;4975585;28;20431;-63
2022/10/07 15:16:37;;;;;;;2.55;1.95;;;;;;;;;;4975304;28;20059;-62
2022/10/07 15:19:04;;;;;;;1.17;0.40;;;;;;;;;;4975370;28;20051;-62